Time;durP1;ratioP1;P1;durP2;ratioP2;P2;SDS_P1;SDS_P2;PMS_P1;PMS_P2;Temp;Humidity;BMP_temperature;BMP_pressure;BME280_temperature;BME280_humidity;BME280_pressure;Samples;Min_cycle;Max_cycle;Signal;HPM_P1;HPM_P2
2021/07/08 00:02:18;;;;;;;4.50;4.00;;;18.60;99.90;;;;;;6074650;23;20446;-86
2021/07/08 00:04:45;;;;;;;3.63;3.37;;;18.60;99.90;;;;;;6073992;23;20455;-85
2021/07/08 00:07:18;;;;;;;3.67;3.37;;;18.70;99.90;;;;;;6074750;23;20413;-84
2021/07/08 00:09:45;;;;;;;5.43;3.33;;;18.70;99.90;;;;;;6074435;23;20416;-85
2021/07/08 00:12:13;;;;;;;4.50;3.70;;;18.70;99.90;;;;;;6074471;23;20444;-86
2021/07/08 00:14:39;;;;;;;4.20;3.90;;;18.70;99.90;;;;;;6075137;23;20447;-85
2021/07/08 00:17:07;;;;;;;7.23;3.47;;;18.70;99.90;;;;;;6075029;23;20778;-86
2021/07/08 00:19:35;;;;;;;5.70;3.80;;;18.50;99.90;;;;;;6075604;23;20423;-86
2021/07/08 00:22:02;;;;;;;4.33;3.40;;;18.50;99.90;;;;;;6074660;23;20436;-86
2021/07/08 00:24:29;;;;;;;4.13;3.67;;;18.50;99.90;;;;;;6074900;23;20416;-86
2021/07/08 00:26:56;;;;;;;4.07;3.37;;;18.60;99.90;;;;;;6075066;23;20419;-85
2021/07/08 00:29:24;;;;;;;4.20;3.80;;;18.60;99.90;;;;;;6075633;23;20420;-86
2021/07/08 00:31:51;;;;;;;3.47;3.20;;;18.60;99.90;;;;;;6073442;23;20467;-86
2021/07/08 00:34:17;;;;;;;5.00;4.07;;;18.70;99.90;;;;;;6075357;23;20501;-85
2021/07/08 00:36:44;;;;;;;4.30;3.87;;;18.70;99.90;;;;;;6075297;23;20421;-86
2021/07/08 00:39:11;;;;;;;4.70;4.30;;;18.70;99.90;;;;;;6074994;23;20451;-85
2021/07/08 00:41:38;;;;;;;3.30;3.10;;;18.70;99.90;;;;;;6078972;23;20433;-85
2021/07/08 00:44:05;;;;;;;4.63;4.20;;;18.70;99.90;;;;;;6076080;23;20423;-84
2021/07/08 00:46:34;;;;;;;8.13;3.90;;;18.70;99.90;;;;;;6077428;23;20514;-86
2021/07/08 00:49:00;;;;;;;2.80;2.60;;;18.70;99.90;;;;;;6077075;23;20440;-85
2021/07/08 00:54:43;;;;;;;;;;;;;;;;;;;;;
2021/07/08 01:00:26;;;;;;;4.30;3.87;;;18.70;99.90;;;;;;5824245;24;20428;-85
2021/07/08 11:29:22;;;;;;;1.90;1.80;;;25.20;98.50;;;;;;6099536;23;20453;-84
2021/07/08 11:31:59;;;;;;;2.50;2.10;;;25.20;98.90;;;;;;6064311;23;20454;-86
2021/07/08 11:34:30;;;;;;;2.70;1.83;;;25.30;98.10;;;;;;6105077;23;20405;-84
2021/07/08 11:36:58;;;;;;;2.47;2.07;;;25.30;98.20;;;;;;6105538;23;20652;-85
2021/07/08 11:39:31;;;;;;;2.03;1.93;;;25.40;98.30;;;;;;6106291;23;20460;-85
2021/07/08 11:41:58;;;;;;;1.60;1.50;;;25.50;98.80;;;;;;6104911;23;20441;-86
2021/07/08 11:44:30;;;;;;;2.00;1.80;;;25.60;98.00;;;;;;6102141;23;20418;-86
2021/07/08 11:46:59;;;;;;;2.20;2.00;;;25.70;96.50;;;;;;6102527;23;20407;-85
2021/07/08 11:49:27;;;;;;;1.90;1.80;;;25.70;95.90;;;;;;6102722;23;20420;-85
2021/07/08 11:51:54;;;;;;;1.67;1.57;;;25.70;95.90;;;;;;6103117;23;20945;-84
2021/07/08 11:54:21;;;;;;;2.90;1.83;;;25.70;95.90;;;;;;6101230;23;20739;-84
2021/07/08 11:56:49;;;;;;;1.67;1.57;;;25.60;96.00;;;;;;6101345;23;20419;-85
2021/07/08 11:59:25;;;;;;;4.50;2.40;;;25.60;96.90;;;;;;6103893;23;20985;-83
2021/07/08 12:01:55;;;;;;;1.90;1.80;;;25.50;96.30;;;;;;6104156;23;20450;-84
2021/07/08 12:04:24;;;;;;;1.90;1.80;;;25.50;96.00;;;;;;6104992;23;20400;-84
2021/07/08 12:07:17;;;;;;;;;;;;;;;;;;;;;
2021/07/08 12:10:42;;;;;;;;;;;;;;;;;;;;;
2021/07/08 12:16:25;;;;;;;1.67;1.57;;;25.60;96.20;;;;;;5909506;24;20430;-87
2021/07/08 12:26:31;;;;;;;;;;;;;;;;;;;;;
2021/07/08 12:29:27;;;;;;;1.63;1.53;;;25.70;96.30;;;;;;6075812;23;20446;-86
2021/07/08 12:32:07;;;;;;;;;;;;;;;;;;;;;
2021/07/08 12:41:16;;;;;;;2.97;2.40;;;26.00;96.40;;;;;;5842900;24;21514;-84
2021/07/08 12:47:08;;;;;;;3.77;2.60;;;25.70;97.00;;;;;;5864198;24;20971;-84
2021/07/08 12:49:45;;;;;;;4.77;2.30;;;25.40;98.90;;;;;;6081562;23;20433;-84
2021/07/08 12:52:38;;;;;;;;;;;;;;;;;;;;;
2021/07/08 12:58:35;;;;;;;2.93;2.67;;;24.00;99.90;;;;;;6072855;23;20975;-85
2021/07/08 13:11:51;;;;;;;2.27;1.80;;;22.60;99.90;;;;;;5866642;24;20504;-86
2021/07/08 13:14:58;;;;;;;2.90;2.30;;;22.40;99.90;;;;;;6065223;23;20427;-85
2021/07/08 13:17:31;;;;;;;3.37;2.50;;;22.40;99.90;;;;;;6079774;23;20406;-85
2021/07/08 13:20:12;;;;;;;2.13;2.03;;;22.40;99.90;;;;;;6077475;23;20464;-85
2021/07/08 13:22:44;;;;;;;2.80;2.60;;;22.30;99.90;;;;;;6075927;23;20506;-86
2021/07/08 13:25:24;;;;;;;3.33;2.47;;;22.30;99.90;;;;;;6075292;23;20395;-86
2021/07/08 13:27:54;;;;;;;3.07;2.63;;;22.20;99.90;;;;;;6076497;23;20776;-86
2021/07/08 13:30:24;;;;;;;2.60;2.40;;;22.10;99.90;;;;;;6075378;23;20398;-86
2021/07/08 13:33:06;;;;;;;1.80;1.70;;;22.10;99.90;;;;;;6074318;23;20434;-86
2021/07/08 13:36:04;;;;;;;2.40;1.50;;;21.70;99.90;;;;;;6073025;23;20474;-86
2021/07/08 13:38:34;;;;;;;1.80;1.70;;;21.40;99.90;;;;;;6072384;23;20727;-85
2021/07/08 13:41:08;;;;;;;2.40;2.30;;;21.30;99.90;;;;;;6072144;23;20386;-86
2021/07/08 13:43:59;;;;;;;2.50;2.30;;;21.30;99.90;;;;;;6071932;23;20462;-85
2021/07/08 13:46:33;;;;;;;4.20;2.20;;;21.30;99.90;;;;;;6065817;23;20821;-86
2021/07/08 14:05:12;;;;;;;2.57;2.47;;;20.80;99.90;;;;;;5744665;24;20978;-87
2021/07/08 14:07:41;;;;;;;2.83;2.63;;;21.00;99.90;;;;;;5903641;24;20416;-85
2021/07/08 14:10:30;;;;;;;6.70;3.60;;;21.30;99.90;;;;;;5984298;24;20508;-86
2021/07/08 14:13:00;;;;;;;2.40;2.30;;;21.80;99.90;;;;;;6040205;23;20435;-85
2021/07/08 14:25:49;;;;;;;;;;;;;;;;;;;;;
2021/07/08 14:28:34;;;;;;;2.90;2.53;;;23.20;99.90;;;;;;6071719;23;20470;-85
2021/07/08 14:31:53;;;;;;;;;;;;;;;;;;;;;
2021/07/08 14:37:47;;;;;;;2.80;2.60;;;23.10;99.90;;;;;;5920802;23;20498;-85
2021/07/08 14:40:19;;;;;;;2.57;2.47;;;23.00;99.90;;;;;;6073114;23;20448;-84
2021/07/08 14:49:39;;;;;;;3.30;3.10;;;23.00;99.90;;;;;;5918740;23;20437;-86
2021/07/08 14:52:29;;;;;;;3.20;3.00;;;23.00;99.90;;;;;;5902433;24;20454;-85
2021/07/08 14:58:42;;;;;;;3.07;2.87;;;23.60;99.90;;;;;;5838023;23;20407;-86
2021/07/08 15:01:11;;;;;;;3.00;2.80;;;23.80;99.90;;;;;;6056391;23;20405;-86
2021/07/08 15:03:42;;;;;;;2.53;2.43;;;23.80;99.90;;;;;;6073135;23;20464;-86
2021/07/08 15:06:13;;;;;;;3.30;3.10;;;24.00;99.90;;;;;;6075373;23;20425;-86
2021/07/08 15:11:27;;;;;;;1.90;1.83;;;25.50;99.90;;;;;;6072409;23;20446;-85
2021/07/08 15:19:55;;;;;;;2.53;2.43;;;27.20;96.00;;;;;;6060649;23;20570;-86
2021/07/08 15:25:48;;;;;;;3.43;3.23;;;26.90;95.30;;;;;;6072995;23;20435;-85
2021/07/08 15:28:27;;;;;;;4.03;3.63;;;26.30;95.80;;;;;;6075648;23;20728;-85
2021/07/08 15:30:59;;;;;;;3.23;3.03;;;25.80;96.80;;;;;;6075113;23;20398;-86
2021/07/08 15:36:32;;;;;;;2.70;2.50;;;25.40;97.20;;;;;;6070606;23;20402;-85
2021/07/08 15:42:06;;;;;;;2.50;2.40;;;25.00;97.40;;;;;;6056671;23;20517;-85
2021/07/08 15:44:39;;;;;;;3.77;3.57;;;24.80;97.90;;;;;;6089030;23;20445;-84
2021/07/08 15:47:25;;;;;;;3.73;3.43;;;24.60;98.60;;;;;;6091551;23;20421;-84
2021/07/08 15:50:01;;;;;;;3.70;3.47;;;24.40;98.90;;;;;;6078216;23;20405;-86
2021/07/08 15:52:29;;;;;;;3.00;2.80;;;24.30;99.00;;;;;;6077608;23;20464;-86
2021/07/08 15:55:02;;;;;;;3.17;2.97;;;24.70;99.30;;;;;;6075199;23;20417;-86
2021/07/08 15:57:29;;;;;;;3.60;3.30;;;25.00;99.10;;;;;;6074841;23;20396;-85
2021/07/08 15:59:56;;;;;;;3.57;3.37;;;25.00;98.30;;;;;;6075864;23;20955;-85
2021/07/08 16:02:25;;;;;;;3.57;3.37;;;24.60;99.00;;;;;;6075266;23;20521;-85
2021/07/08 16:05:18;;;;;;;3.13;2.93;;;24.00;99.50;;;;;;6074528;23;20412;-85
2021/07/08 16:07:56;;;;;;;4.43;4.13;;;23.50;99.80;;;;;;6074552;23;20411;-85
2021/07/08 16:10:31;;;;;;;5.67;5.27;;;22.90;99.90;;;;;;6074538;23;20390;-85
2021/07/08 16:13:43;;;;;;;4.13;3.93;;;22.50;99.90;;;;;;6075315;23;20447;-84
2021/07/08 16:16:35;;;;;;;5.77;5.37;;;22.20;99.90;;;;;;5904341;24;20480;-84
2021/07/08 16:19:09;;;;;;;5.60;5.30;;;21.90;99.90;;;;;;5903734;24;20434;-85
2021/07/08 16:25:03;;;;;;;4.70;4.40;;;21.60;99.90;;;;;;6073043;23;20768;-85
2021/07/08 16:27:49;;;;;;;5.13;4.73;;;21.40;99.90;;;;;;6075646;23;20738;-85
2021/07/08 16:34:03;;;;;;;;;;;;;;;;;;;;;
2021/07/08 16:37:01;;;;;;;5.47;5.07;;;20.60;99.90;;;;;;5836165;24;20429;-85
2021/07/08 16:43:18;;;;;;;4.97;4.07;;;20.30;99.90;;;;;;5845449;23;20477;-85
2021/07/08 16:46:06;;;;;;;4.47;4.17;;;20.10;99.90;;;;;;6028267;23;20421;-85
2021/07/08 16:48:36;;;;;;;4.10;3.80;;;20.00;99.90;;;;;;6074768;23;20417;-84
2021/07/08 16:51:27;;;;;;;4.60;4.30;;;19.90;99.90;;;;;;6076518;23;20808;-84
2021/07/08 17:00:00;;;;;;;3.40;3.20;;;19.80;99.90;;;;;;6062060;23;20428;-87
2021/07/08 17:09:09;;;;;;;2.70;2.60;;;19.60;99.90;;;;;;5885804;24;20408;-84
2021/07/08 17:11:36;;;;;;;3.00;2.23;;;19.60;99.90;;;;;;5986536;23;20431;-86
2021/07/08 17:14:49;;;;;;;2.83;2.63;;;19.60;99.90;;;;;;6000964;23;20411;-86
2021/07/08 17:17:34;;;;;;;3.33;3.03;;;19.60;99.90;;;;;;6058014;23;20499;-86
2021/07/08 17:23:09;;;;;;;2.83;2.73;;;19.30;99.90;;;;;;6076775;23;20912;-86
2021/07/08 17:26:02;;;;;;;2.70;2.50;;;19.30;99.90;;;;;;6078652;23;20459;-86
2021/07/08 17:28:58;;;;;;;3.63;3.40;;;19.20;99.90;;;;;;6093174;23;20476;-85
2021/07/08 17:31:52;;;;;;;3.30;3.10;;;19.10;99.90;;;;;;6056269;23;20571;-85
2021/07/08 17:34:22;;;;;;;3.03;2.90;;;19.10;99.90;;;;;;6076659;23;20429;-84
2021/07/08 17:37:14;;;;;;;3.20;3.00;;;19.00;99.90;;;;;;6077365;23;20419;-86
2021/07/08 17:39:44;;;;;;;3.30;3.10;;;18.90;99.90;;;;;;6072349;23;20448;-84
2021/07/08 17:42:24;;;;;;;;;;;;;;;;;;;;;
2021/07/08 17:45:07;;;;;;;2.50;2.40;;;18.90;99.90;;;;;;6077959;23;20412;-86
2021/07/08 18:10:25;;;;;;;3.73;3.50;;;18.30;99.90;;;;;;5865983;24;20402;-84
2021/07/08 18:12:54;;;;;;;4.53;4.13;;;18.30;99.90;;;;;;6033440;23;20214;-83
2021/07/08 18:15:23;;;;;;;4.23;3.93;;;18.30;99.90;;;;;;6075672;23;20408;-83
2021/07/08 18:17:51;;;;;;;4.60;4.30;;;18.30;99.90;;;;;;6076571;23;20424;-83
2021/07/08 18:20:21;;;;;;;4.80;4.40;;;18.20;99.90;;;;;;6078296;23;20486;-83
2021/07/08 18:22:51;;;;;;;5.47;5.07;;;18.20;99.90;;;;;;6075933;23;20436;-83
2021/07/08 18:25:22;;;;;;;5.10;4.73;;;18.10;99.90;;;;;;6077288;23;20415;-83
2021/07/08 18:27:51;;;;;;;5.83;5.43;;;18.10;99.90;;;;;;6077254;23;20495;-82
2021/07/08 18:30:19;;;;;;;4.27;4.00;;;18.10;99.90;;;;;;6076259;23;20419;-83
2021/07/08 18:32:47;;;;;;;5.17;4.77;;;18.10;99.90;;;;;;6074536;23;20437;-83
2021/07/08 18:35:15;;;;;;;4.97;4.67;;;18.10;99.90;;;;;;6075232;23;20419;-83
2021/07/08 18:37:43;;;;;;;6.03;5.53;;;18.10;99.90;;;;;;6075589;23;20477;-82
2021/07/08 18:40:11;;;;;;;5.53;5.13;;;18.10;99.90;;;;;;6077945;23;20533;-83
2021/07/08 18:42:40;;;;;;;4.27;3.87;;;18.10;99.90;;;;;;6075857;23;20435;-83
2021/07/08 18:45:09;;;;;;;4.20;3.93;;;18.00;99.90;;;;;;6077993;23;20498;-81
2021/07/08 18:48:02;;;;;;;4.07;3.77;;;17.90;99.90;;;;;;6077093;23;20526;-84
2021/07/08 18:50:37;;;;;;;4.50;4.30;;;17.80;99.90;;;;;;6062684;23;20423;-86
2021/07/08 18:53:09;;;;;;;4.50;4.20;;;17.80;99.90;;;;;;6074396;23;20446;-83
2021/07/08 18:55:40;;;;;;;4.33;4.07;;;17.80;99.90;;;;;;6075850;23;20403;-86
2021/07/08 18:58:17;;;;;;;4.07;3.77;;;17.80;99.90;;;;;;6076180;23;20710;-83
2021/07/08 19:01:11;;;;;;;5.60;4.57;;;17.70;99.90;;;;;;6075735;23;20660;-85
2021/07/08 19:03:40;;;;;;;4.67;4.27;;;17.70;99.90;;;;;;6030758;23;20510;-84
2021/07/08 19:06:11;;;;;;;5.13;4.83;;;17.70;99.90;;;;;;6083815;23;20449;-84
2021/07/08 19:08:38;;;;;;;5.10;4.70;;;17.60;99.90;;;;;;6082781;23;20405;-83
2021/07/08 19:11:05;;;;;;;6.30;5.80;;;17.60;99.90;;;;;;6083886;23;20781;-84
2021/07/08 19:13:36;;;;;;;6.70;6.20;;;17.60;99.90;;;;;;6084181;23;20414;-84
2021/07/08 19:16:03;;;;;;;5.70;5.30;;;17.70;99.90;;;;;;6085039;23;20486;-85
2021/07/08 19:18:40;;;;;;;5.23;4.97;;;17.60;99.90;;;;;;6083911;23;20925;-84
2021/07/08 19:27:52;;;;;;;6.70;6.20;;;17.50;99.90;;;;;;5813873;24;20484;-84
2021/07/08 19:30:26;;;;;;;5.30;4.90;;;17.40;99.90;;;;;;5988117;24;20484;-85
2021/07/08 19:32:55;;;;;;;5.10;4.80;;;17.40;99.90;;;;;;6062143;23;20433;-85
2021/07/08 19:41:55;;;;;;;4.50;4.20;;;17.30;99.90;;;;;;5737150;24;20479;-84
2021/07/08 19:44:26;;;;;;;4.73;4.00;;;17.30;99.90;;;;;;5934132;24;20425;-86
2021/07/08 19:47:14;;;;;;;;;;;;;;;;;;;;;
2021/07/08 19:49:48;;;;;;;5.37;4.00;;;17.20;99.90;;;;;;6068196;23;20457;-86
2021/07/08 19:52:53;;;;;;;4.87;4.47;;;17.20;99.90;;;;;;6081275;23;20435;-86
2021/07/08 19:55:37;;;;;;;4.47;4.17;;;17.20;99.90;;;;;;6082979;23;20423;-85
2021/07/08 19:58:29;;;;;;;;;;;;;;;;;;;;;
2021/07/08 20:01:57;;;;;;;4.63;4.23;;;17.20;99.90;;;;;;6070290;23;20513;-86
2021/07/08 20:05:06;;;;;;;;;;;;;;;;;;;;;
2021/07/08 20:08:14;;;;;;;4.70;4.20;;;17.30;99.90;;;;;;6027831;23;20440;-85
2021/07/08 20:11:34;;;;;;;4.30;4.07;;;17.30;99.90;;;;;;6000029;24;20446;-86
2021/07/08 20:14:06;;;;;;;3.70;3.50;;;17.30;99.90;;;;;;5999439;24;20390;-85
2021/07/08 20:16:36;;;;;;;3.37;3.07;;;17.30;99.90;;;;;;6016487;23;20509;-85
2021/07/08 20:19:08;;;;;;;4.43;4.03;;;17.30;99.90;;;;;;6079055;23;20416;-85
2021/07/08 20:22:11;;;;;;;;;;;;;;;;;;;;;
2021/07/08 20:28:17;;;;;;;5.13;4.83;;;17.30;99.90;;;;;;5696467;25;20436;-84
2021/07/08 20:30:48;;;;;;;4.63;4.33;;;17.30;99.90;;;;;;5774495;24;20389;-85
2021/07/08 20:33:17;;;;;;;5.40;4.97;;;17.30;99.90;;;;;;6009449;23;20442;-83
2021/07/08 20:35:48;;;;;;;4.93;4.63;;;17.40;99.90;;;;;;6079712;23;20465;-84
2021/07/08 20:38:15;;;;;;;5.63;5.23;;;17.40;99.90;;;;;;6080433;23;20388;-84
2021/07/08 20:40:45;;;;;;;5.23;4.83;;;17.40;99.90;;;;;;6080172;23;20458;-84
2021/07/08 20:43:13;;;;;;;6.07;5.57;;;17.30;99.90;;;;;;6078593;23;20449;-85
2021/07/08 20:45:40;;;;;;;6.50;5.87;;;17.30;99.90;;;;;;6077992;23;20455;-85
2021/07/08 20:48:09;;;;;;;6.70;6.10;;;17.20;99.90;;;;;;6079792;23;20471;-85
2021/07/08 20:50:48;;;;;;;5.60;5.23;;;17.30;99.90;;;;;;6077731;23;20404;-85
2021/07/08 20:53:15;;;;;;;7.00;6.40;;;17.30;99.90;;;;;;6076487;23;20518;-84
2021/07/08 20:55:49;;;;;;;7.37;6.57;;;17.20;99.90;;;;;;6079187;23;20974;-85
2021/07/08 20:58:18;;;;;;;8.43;7.67;;;17.30;99.90;;;;;;6078008;23;20394;-85
2021/07/08 21:00:47;;;;;;;7.57;6.97;;;17.30;99.90;;;;;;6075855;23;20445;-85
2021/07/08 21:03:18;;;;;;;8.00;7.30;;;17.20;99.90;;;;;;6076315;23;20780;-84
2021/07/08 21:05:45;;;;;;;9.40;8.60;;;17.20;99.90;;;;;;6080507;23;20490;-85
2021/07/08 21:08:19;;;;;;;12.53;9.07;;;17.10;99.90;;;;;;6083409;23;20416;-85
2021/07/08 21:10:47;;;;;;;10.23;9.43;;;17.10;99.90;;;;;;6082208;23;20403;-85
2021/07/08 21:13:25;;;;;;;9.50;8.50;;;17.10;99.90;;;;;;6078422;23;20465;-86
2021/07/08 21:15:56;;;;;;;9.47;8.57;;;16.90;99.90;;;;;;6077567;23;20420;-87
2021/07/08 21:18:34;;;;;;;8.63;7.80;;;16.90;99.90;;;;;;6076574;23;20456;-86
2021/07/08 21:21:09;;;;;;;9.93;9.00;;;16.90;99.90;;;;;;6074715;23;20509;-86
2021/07/08 21:23:41;;;;;;;9.90;9.00;;;16.80;99.90;;;;;;6075871;23;20755;-87
2021/07/08 21:26:19;;;;;;;7.80;7.10;;;16.80;99.90;;;;;;6076523;23;20387;-86
2021/07/08 21:34:19;;;;;;;9.27;8.37;;;16.50;99.90;;;;;;6066961;23;20794;-87
2021/07/08 21:36:50;;;;;;;9.03;8.17;;;16.50;99.90;;;;;;6071895;23;20444;-87
2021/07/08 21:43:32;;;;;;;8.77;7.97;;;16.40;99.90;;;;;;5784209;24;20554;-88
2021/07/08 21:46:39;;;;;;;9.50;8.43;;;16.30;99.90;;;;;;5889902;24;20873;-86
2021/07/08 21:49:48;;;;;;;9.23;8.43;;;16.30;99.90;;;;;;5993841;23;20820;-87
2021/07/08 21:52:44;;;;;;;8.60;7.97;;;16.20;99.90;;;;;;6079634;23;20433;-87
2021/07/08 21:55:59;;;;;;;;;;;;;;;;;;;;;
2021/07/08 22:50:43;;;;;;;8.90;6.57;;;15.60;99.90;;;;;;6078341;23;20410;-85
2021/07/08 22:53:18;;;;;;;6.90;6.17;;;15.60;99.90;;;;;;6077089;23;20430;-85
2021/07/08 22:55:47;;;;;;;6.83;6.30;;;15.60;99.90;;;;;;6077119;23;20440;-84
2021/07/08 22:58:18;;;;;;;6.90;6.30;;;15.60;99.90;;;;;;6077667;23;20448;-85
2021/07/08 23:00:47;;;;;;;7.57;7.00;;;15.60;99.90;;;;;;6076890;23;20399;-85
2021/07/08 23:03:34;;;;;;;7.70;7.10;;;15.50;99.90;;;;;;6075732;23;20453;-84
2021/07/08 23:06:19;;;;;;;8.10;7.40;;;15.50;99.90;;;;;;6078145;23;20398;-85
2021/07/08 23:09:03;;;;;;;7.17;6.57;;;15.50;99.90;;;;;;6078624;23;20458;-85
2021/07/08 23:11:36;;;;;;;7.70;6.97;;;15.40;99.90;;;;;;6078416;23;20437;-86
2021/07/08 23:14:34;;;;;;;7.77;7.07;;;15.40;99.90;;;;;;6077641;23;20426;-86
2021/07/08 23:17:16;;;;;;;7.70;7.00;;;15.30;99.90;;;;;;6060819;23;20424;-87
2021/07/08 23:19:44;;;;;;;7.67;6.97;;;15.30;99.90;;;;;;6080290;23;20398;-86
2021/07/08 23:22:11;;;;;;;8.20;7.37;;;15.30;99.90;;;;;;6076615;23;20453;-86
2021/07/08 23:24:38;;;;;;;8.13;7.33;;;15.30;99.90;;;;;;6075090;23;20421;-87
2021/07/08 23:27:06;;;;;;;6.60;6.10;;;15.30;99.90;;;;;;6076985;23;20419;-85
2021/07/08 23:29:39;;;;;;;6.83;6.27;;;15.30;99.90;;;;;;6078653;23;20901;-85
2021/07/08 23:32:13;;;;;;;7.47;6.77;;;15.30;99.90;;;;;;6078259;23;20444;-87
2021/07/08 23:34:40;;;;;;;7.23;6.70;;;15.30;99.90;;;;;;6078731;23;20433;-86
2021/07/08 23:37:23;;;;;;;8.20;7.40;;;15.30;99.90;;;;;;6078801;23;20414;-86
